KEFK

Northeast Kingdom International Airport

Newport, Vermont, USA
METAR KEFK 181415Z AUTO 17004KT 7SM -SN SCT035 BKN046 OVC120 M08/M11 A3002 RMK AO2 T10811106
Observed Flight Rules
Jan-18 @ 14:15 UTC (9 minutes ago) Visual Flight Rules
Wind Visibility Clouds Conditions
170° at 4 knots 7 miles
  • Scattered at 3,500' AGL
  • Broken at 4,600' AGL
  • Overcast at 12,000' AGL
  • Light Snow
Temperatures Readings
Current -8°C / 18°F
Dewpoint -11°C / 12°F
Humidity 79%
Altimeter 30.02" Hg
Pressure 1016.62 hPa
Elevation 284
METAR KEFK 181415Z AUTO 17004KT 7SM -SN SCT035 BKN046 OVC120 M08/M11 A3002 RMK AO2 T10811106
Observed Flight Rules
Jan-18 @ 14:15 UTC
(9 minutes ago)
VFR
Wind Visibility
170° at 4 knots 7 miles
Clouds
  • Scattered at 3,500' AGL
  • Broken at 4,600' AGL
  • Overcast at 12,000' AGL
Conditions
  • Light Snow
Temperature Dewpoint
-8°C / 18°F -11°C / 12°F
Humidity Altimeter Pressure
79% 30.02" Hg 1016.62 hPa